Fruitland, Utah
Current Conditions -  °F | °C
As of 2:35 PM on Saturday 22 Nov 2014 (Local Time) from K36U Reporting Station
Unknown Precip Unknown Precip  
Wind Chill: 32°   Ceiling: 2600
Heat Index: 37°   Visibility: 5mi
Dew Point: 34°   Wind: 7mph
Humidity: 87%   Direction: 170°S
Pressure: 29.79"   Gusts: NA
Location:  40.21°N, 110.84°W
Report Text: K36U 222135Z AUTO 17006KT 5SM UP SCT019 OVC026 03/01 A2979 RMK AO2 LTG DSNT N
Loading
Personal Weather Stations






























Interactive Weather Map New forecast layout! Learn more

10-Day Weather Forecast

Advertisements
Track Severe Weather on mobile